PrinceSS Superior — CZ4348 — position and weather

sailwx.info

Track history (hours):
 
Tides and Currents Weather Stations Pressure Air Temp Water Temp Dewpoint Dewpoint Depression Visibility Wind Speed Wind Dir Waves Ship Positions

PrinceSS Superior

Last reported at 2018-Jun-23 07:27 UTC. Time now 2018-Jun-23 07:51 UTC.
Position N 48°60' W 123°21'.

Length 117 m; draft 4.5 m.

Type: Ship. MMSI: 316003289.

Date/timePositionNaut miles runAvg speedWind from/ knotsBaromVisibWave heightAir tempDewpointWater temp
2018-Jun-23 07:27N 48°60' W 123°21'511.4
2018-Jun-23 07:00N 49°05' W 123°20'611.6
2018-Jun-23 06:30N 49°08' W 123°13'510.2
2018-Jun-23 06:00N 49°07' W 123°05'3 5.2
2018-Jun-23 05:30N 49°09' W 123°02'0 0.0
2018-Jun-23 05:00N 49°09' W 123°02'1 2.5
2018-Jun-23 04:30N 49°08' W 123°04'4 8.5
2018-Jun-23 04:00N 49°07' W 123°10'4 6.8
2018-Jun-23 03:25N 49°07' W 123°16'4 7.8
2018-Jun-23 02:57N 49°06' W 123°21'7 1.0
2018-Jun-22 20:22N 49°09' W 123°30'511.1
2018-Jun-22 19:56N 49°07' W 123°23'410.0
2018-Jun-22 19:30N 49°07' W 123°17'510.3
2018-Jun-22 18:59N 49°07' W 123°09'5 9.6
2018-Jun-22 18:30N 49°09' W 123°02'0 0.0
2018-Jun-22 18:00N 49°09' W 123°02'0 0.0
2018-Jun-22 17:30N 49°09' W 123°02'0 0.0
2018-Jun-22 16:59N 49°09' W 123°02'0 0.0
2018-Jun-22 16:30N 49°09' W 123°02'0 0.0
2018-Jun-22 16:00N 49°09' W 123°02'0 0.0
2018-Jun-22 15:30N 49°09' W 123°02'0 0.0
2018-Jun-22 14:58N 49°09' W 123°02'1 2.7
2018-Jun-22 14:30N 49°08' W 123°04'4 8.5
2018-Jun-22 14:00N 49°07' W 123°10'4 8.2
2018-Jun-22 13:29N 49°07' W 123°16'5 9.3
2018-Jun-22 13:00N 49°03' W 123°20'712.9
2018-Jun-22 12:30N 48°57' W 123°18'5 9.2
2018-Jun-22 11:56N 48°52' W 123°21'410.2
2018-Jun-22 11:30N 48°47' W 123°20'611.4
2018-Jun-22 11:01N 48°42' W 123°24'1 1.8
2018-Jun-22 10:30N 48°41' W 123°24'0 0.0
2018-Jun-22 10:00N 48°41' W 123°24'0 0.0
2018-Jun-22 09:30N 48°41' W 123°24'2 4.6
2018-Jun-22 09:01N 48°42' W 123°21'712.8
2018-Jun-22 08:29N 48°49' W 123°21'5 9.9
2018-Jun-22 07:58N 48°54' W 123°18'511.8
2018-Jun-22 07:30N 48°59' W 123°21'511.0
2018-Jun-22 07:00N 49°05' W 123°21'612.2
2018-Jun-22 06:30N 49°08' W 123°13'611.7
2018-Jun-22 06:00N 49°08' W 123°04'1 2.9
2018-Jun-22 05:30N 49°09' W 123°02'0 0.0
2018-Jun-22 05:00N 49°09' W 123°02'0 0.0
2018-Jun-22 04:30N 49°09' W 123°02'0 0.0
2018-Jun-22 04:00N 49°09' W 123°02'1 1.1
2018-Jun-22 03:30N 49°08' W 123°03'5 9.8
2018-Jun-22 02:58N 49°07' W 123°10'4 9.2
2018-Jun-22 02:29N 49°07' W 123°17'5 9.4
2018-Jun-22 02:00N 49°07' W 123°24'3 0.6
2018-Jun-21 20:14N 49°09' W 123°28'312.6
2018-Jun-21 20:00N 49°08' W 123°24'611.6
2018-Jun-21 19:27N 49°08' W 123°15'612.3
2018-Jun-21 19:00N 49°07' W 123°06'3 6.5
2018-Jun-21 18:30N 49°09' W 123°02'0 0.0
2018-Jun-21 18:00N 49°09' W 123°02'0 0.0
2018-Jun-21 17:25N 49°09' W 123°02'0 0.0
2018-Jun-21 17:00N 49°09' W 123°02'0 0.0
2018-Jun-21 16:30N 49°09' W 123°02'0 0.0
2018-Jun-21 16:00N 49°09' W 123°02'0 0.0
2018-Jun-21 15:30N 49°09' W 123°02'0 0.0
2018-Jun-21 15:00N 49°09' W 123°02'0 0.8
2018-Jun-21 14:30N 49°08' W 123°03'4 8.8
2018-Jun-21 14:00N 49°06' W 123°09'4 8.4
2018-Jun-21 13:30N 49°08' W 123°15'4 8.6
2018-Jun-21 12:59N 49°04' W 123°19'612.3
2018-Jun-21 12:31N 48°59' W 123°16'713.1
2018-Jun-21 12:00N 48°52' W 123°18'4 7.7
2018-Jun-21 11:30N 48°49' W 123°20'611.9
2018-Jun-21 11:01N 48°43' W 123°24'2 3.8
2018-Jun-21 10:30N 48°41' W 123°24'0 0.0
2018-Jun-21 10:01N 48°41' W 123°24'0 0.0
2018-Jun-21 09:30N 48°41' W 123°24'1 2.4
2018-Jun-21 09:01N 48°42' W 123°23'812.8
2018-Jun-21 08:23N 48°50' W 123°21'410.5
2018-Jun-21 07:57N 48°54' W 123°18'613.1
2018-Jun-21 07:29N 48°60' W 123°19'612.4
2018-Jun-21 07:00N 49°06' W 123°19'611.0
2018-Jun-21 06:28N 49°07' W 123°10'611.5
2018-Jun-21 06:00N 49°09' W 123°02'0 0.3
2018-Jun-21 05:30N 49°09' W 123°02'0 0.0
2018-Jun-21 04:59N 49°09' W 123°02'0 0.0
2018-Jun-21 04:30N 49°09' W 123°02'0 0.0
2018-Jun-21 04:00N 49°09' W 123°02'0 0.7
2018-Jun-21 03:30N 49°09' W 123°03'5 9.6
2018-Jun-21 03:00N 49°07' W 123°09'5 9.0
2018-Jun-21 02:24N 49°06' W 123°18'4 9.1
2018-Jun-21 02:00N 49°06' W 123°23'510.4
2018-Jun-21 01:30N 49°08' W 123°30'2 0.3
2018-Jun-20 20:06N 49°08' W 123°27'112.5
2018-Jun-20 20:00N 49°08' W 123°26'611.6
2018-Jun-20 19:28N 49°07' W 123°16'512.0
2018-Jun-20 19:00N 49°07' W 123°08'4 8.4
2018-Jun-20 18:30N 49°09' W 123°02'0 0.0
2018-Jun-20 17:58N 49°09' W 123°02'0 0.0
2018-Jun-20 17:30N 49°09' W 123°02'0 0.0
2018-Jun-20 17:00N 49°09' W 123°02'0 0.0
2018-Jun-20 16:30N 49°09' W 123°02'0 0.0
2018-Jun-20 16:00N 49°09' W 123°02'0 0.0
2018-Jun-20 15:30N 49°09' W 123°02'0 0.0
2018-Jun-20 14:59N 49°09' W 123°02'0 0.1
2018-Jun-20 14:30N 49°09' W 123°02'5 9.1
2018-Jun-20 14:00N 49°06' W 123°08'5 9.5
2018-Jun-20 13:30N 49°07' W 123°16'4 8.9
2018-Jun-20 13:00N 49°04' W 123°19'612.1
2018-Jun-20 12:30N 48°58' W 123°17'612.2
2018-Jun-20 11:59N 48°51' W 123°19'4 7.9
2018-Jun-20 11:31N 48°48' W 123°20'611.7
2018-Jun-20 11:00N 48°43' W 123°24'1 2.6
2018-Jun-20 10:30N 48°41' W 123°24'0 0.0
2018-Jun-20 10:00N 48°41' W 123°24'0 0.0
2018-Jun-20 09:30N 48°41' W 123°24'3 6.2
2018-Jun-20 09:00N 48°43' W 123°21'714.1
2018-Jun-20 08:29N 48°51' W 123°21'511.1
2018-Jun-20 08:00N 48°56' W 123°19'713.1
2018-Jun-20 07:30N 49°02' W 123°22'611.2
2018-Jun-20 06:57N 49°07' W 123°17'4 9.0
2018-Jun-20 06:30N 49°07' W 123°10'510.6
2018-Jun-20 06:00N 49°09' W 123°03'0 0.6
2018-Jun-20 05:30N 49°09' W 123°02'0 0.0
2018-Jun-20 05:00N 49°09' W 123°02'0 0.0
2018-Jun-20 04:30N 49°09' W 123°02'0 0.0
2018-Jun-20 03:59N 49°09' W 123°02'1 1.6
2018-Jun-20 03:29N 49°08' W 123°03'5 9.6
2018-Jun-20 02:58N 49°07' W 123°10'5 9.9
2018-Jun-20 02:30N 49°06' W 123°18'510.0
2018-Jun-20 01:59N 49°07' W 123°25'3 0.5
2018-Jun-19 20:11N 49°09' W 123°29'310.5
2018-Jun-19 19:55N 49°08' W 123°25'510.2
2018-Jun-19 19:25N 49°07' W 123°17'511.7
2018-Jun-19 18:59N 49°07' W 123°10'510.6
2018-Jun-19 18:30N 49°09' W 123°02'0 0.2
2018-Jun-19 18:00N 49°09' W 123°02'0 0.0
2018-Jun-19 17:30N 49°09' W 123°02'0 0.0
2018-Jun-19 17:01N 49°09' W 123°02'0 0.0
2018-Jun-19 16:31N 49°09' W 123°02'0 0.0
2018-Jun-19 15:58N 49°09' W 123°02'0 0.0
2018-Jun-19 15:30N 49°09' W 123°02'0 0.0
2018-Jun-19 15:00N 49°09' W 123°02'0 0.2
2018-Jun-19 14:30N 49°09' W 123°02'4 9.0
2018-Jun-19 14:00N 49°06' W 123°08'5 9.4
2018-Jun-19 13:30N 49°07' W 123°15'5 9.1
2018-Jun-19 13:00N 49°04' W 123°19'612.7
2018-Jun-19 12:30N 48°58' W 123°17'612.7
2018-Jun-19 12:00N 48°51' W 123°19'4 8.7
2018-Jun-19 11:30N 48°47' W 123°20'510.9
2018-Jun-19 11:00N 48°42' W 123°24'1 2.0
2018-Jun-19 10:30N 48°41' W 123°24'0 0.0
2018-Jun-19 10:00N 48°41' W 123°24'0 0.0
2018-Jun-19 09:29N 48°41' W 123°24'3 6.7
2018-Jun-19 09:00N 48°44' W 123°21'715.0
2018-Jun-19 08:30N 48°51' W 123°21'611.1
2018-Jun-19 07:59N 48°57' W 123°20'612.7
2018-Jun-19 07:29N 49°03' W 123°23'612.0
2018-Jun-19 07:00N 49°07' W 123°17'4 8.9
2018-Jun-19 06:30N 49°07' W 123°10'510.2
2018-Jun-19 06:00N 49°09' W 123°03'1 0.4
2018-Jun-19 03:22N 49°08' W 123°04'410.0
2018-Jun-19 02:57N 49°07' W 123°10'4 9.3
2018-Jun-19 02:28N 49°07' W 123°17'4 8.3
2018-Jun-19 01:56N 49°06' W 123°23'1 0.2
2018-Jun-18 20:06N 49°07' W 123°25'311.1
2018-Jun-18 19:51N 49°07' W 123°21'412.5
2018-Jun-18 19:30N 49°08' W 123°15'712.7
2018-Jun-18 18:57N 49°08' W 123°04'1 2.4
2018-Jun-18 18:28N 49°09' W 123°02'0 0.0
2018-Jun-18 18:00N 49°09' W 123°02'0 0.0
2018-Jun-18 17:30N 49°09' W 123°02'0 0.2
2018-Jun-18 17:00N 49°09' W 123°02'0 0.0
2018-Jun-18 16:28N 49°09' W 123°02'0 0.0
2018-Jun-18 15:54N 49°09' W 123°02'0 0.0
2018-Jun-18 15:29N 49°09' W 123°02'0 0.0
2018-Jun-18 15:00N 49°09' W 123°02'0 0.0
2018-Jun-18 14:30N 49°09' W 123°02'0 0.0
2018-Jun-18 14:00N 49°09' W 123°02'0 0.0
2018-Jun-18 13:30N 49°09' W 123°02'0 0.0
2018-Jun-18 13:00N 49°09' W 123°02'0 0.0
2018-Jun-18 12:30N 49°09' W 123°02'0 0.0
2018-Jun-18 12:00N 49°09' W 123°02'0 0.0
2018-Jun-18 11:30N 49°09' W 123°02'0 0.0
2018-Jun-18 11:00N 49°09' W 123°02'0 0.0
2018-Jun-18 10:30N 49°09' W 123°02'0 0.0
2018-Jun-18 09:59N 49°09' W 123°02'0 0.0
2018-Jun-18 09:30N 49°09' W 123°02'0 0.0
2018-Jun-18 09:00N 49°09' W 123°02'0 0.0
2018-Jun-18 08:30N 49°09' W 123°02'0 0.0
2018-Jun-18 08:00N 49°09' W 123°02'0 0.0
2018-Jun-18 07:30N 49°09' W 123°02'0 0.0
2018-Jun-18 06:53N 49°09' W 123°02'0 0.0
2018-Jun-18 06:30N 49°09' W 123°02'0 0.0
2018-Jun-18 06:00N 49°09' W 123°02'0 0.0
2018-Jun-18 05:28N 49°09' W 123°02'0 0.0
2018-Jun-18 05:00N 49°09' W 123°02'0 0.0
2018-Jun-18 04:30N 49°09' W 123°02'0 0.0
2018-Jun-18 04:00N 49°09' W 123°02'0 0.0
2018-Jun-18 03:30N 49°09' W 123°02'0 0.0
2018-Jun-18 03:00N 49°09' W 123°02'0 0.0
2018-Jun-18 02:30N 49°09' W 123°02'0 0.0
2018-Jun-18 02:00N 49°09' W 123°02'0 0.0
2018-Jun-18 01:30N 49°09' W 123°02'0 0.0
2018-Jun-18 01:00N 49°09' W 123°02'0 0.0
2018-Jun-18 00:30N 49°09' W 123°02'0 0.0
2018-Jun-18 00:00N 49°09' W 123°02'0 0.0
2018-Jun-17 23:30N 49°09' W 123°02'0 0.0
2018-Jun-17 22:58N 49°09' W 123°02'0 0.0
2018-Jun-17 22:30N 49°09' W 123°02'0 0.0
2018-Jun-17 22:00N 49°09' W 123°02'0 0.0
2018-Jun-17 21:30N 49°09' W 123°02'0 0.0
2018-Jun-17 21:00N 49°09' W 123°02'0 0.0
2018-Jun-17 20:30N 49°09' W 123°02'0 0.0
2018-Jun-17 20:00N 49°09' W 123°02'0 0.0
2018-Jun-17 19:29N 49°09' W 123°02'0 0.0
2018-Jun-17 19:00N 49°09' W 123°02'0 0.0
2018-Jun-17 18:30N 49°09' W 123°02'0 0.0
2018-Jun-17 18:00N 49°09' W 123°02'0 0.0
2018-Jun-17 17:30N 49°09' W 123°02'0 0.0
2018-Jun-17 17:00N 49°09' W 123°02'0 0.0
2018-Jun-17 16:30N 49°09' W 123°02'0 0.0
2018-Jun-17 16:00N 49°09' W 123°02'0 0.0
2018-Jun-17 15:30N 49°09' W 123°02'0 0.0
2018-Jun-17 15:00N 49°09' W 123°02'0 0.0
2018-Jun-17 14:30N 49°09' W 123°02'0 0.0
2018-Jun-17 14:00N 49°09' W 123°02'0 0.0
2018-Jun-17 13:30N 49°09' W 123°02'0 0.0
2018-Jun-17 13:00N 49°09' W 123°02'0 0.0
2018-Jun-17 12:30N 49°09' W 123°02'0 0.0
2018-Jun-17 12:00N 49°09' W 123°02'0 0.0
2018-Jun-17 11:30N 49°09' W 123°02'0 0.0
2018-Jun-17 11:00N 49°09' W 123°02'0 0.0
2018-Jun-17 10:30N 49°09' W 123°02'0 0.0
2018-Jun-17 10:00N 49°09' W 123°02'0 0.0
2018-Jun-17 09:30N 49°09' W 123°02'0 0.0
2018-Jun-17 09:00N 49°09' W 123°02'0 0.0
2018-Jun-17 08:30N 49°09' W 123°02'0 0.0
2018-Jun-17 08:00N 49°09' W 123°02'0 0.0
2018-Jun-17 07:30N 49°09' W 123°02'0 0.0
2018-Jun-17 07:00N 49°09' W 123°02'0 0.0
2018-Jun-17 06:30N 49°09' W 123°02'0 0.0
2018-Jun-17 06:00N 49°09' W 123°02'0 0.0
2018-Jun-17 05:30N 49°09' W 123°02'0 0.0
2018-Jun-17 05:00N 49°09' W 123°02'0 0.0
2018-Jun-17 04:30N 49°09' W 123°02'0 0.0
2018-Jun-17 04:00N 49°09' W 123°02'0 0.0
2018-Jun-17 03:30N 49°09' W 123°02'0 0.0
2018-Jun-17 03:00N 49°09' W 123°02'0 0.0
2018-Jun-17 02:30N 49°09' W 123°02'0 0.0
2018-Jun-17 02:00N 49°09' W 123°02'0 0.0
2018-Jun-17 01:30N 49°09' W 123°02'0 0.0
2018-Jun-17 01:00N 49°09' W 123°02'0 0.0
2018-Jun-17 00:30N 49°09' W 123°02'0 0.0
2018-Jun-17 00:00N 49°09' W 123°02'0 0.0
2018-Jun-16 23:30N 49°09' W 123°02'0 0.0
2018-Jun-16 23:00N 49°09' W 123°02'0 0.0
2018-Jun-16 22:30N 49°09' W 123°02'0 0.0
2018-Jun-16 22:00N 49°09' W 123°02'0 0.0
2018-Jun-16 21:30N 49°09' W 123°02'0 0.0
2018-Jun-16 21:00N 49°09' W 123°02'0 0.0
2018-Jun-16 20:30N 49°09' W 123°02'0 0.0
2018-Jun-16 20:00N 49°09' W 123°02'0 0.0
2018-Jun-16 19:30N 49°09' W 123°02'0 0.0
2018-Jun-16 19:00N 49°09' W 123°02'0 0.0
2018-Jun-16 18:30N 49°09' W 123°02'0 0.0
2018-Jun-16 18:00N 49°09' W 123°02'0 0.0
2018-Jun-16 17:30N 49°09' W 123°02'0 0.0
2018-Jun-16 17:00N 49°09' W 123°02'0 0.0
2018-Jun-16 16:30N 49°09' W 123°02'0 0.0
2018-Jun-16 16:00N 49°09' W 123°02'0 0.0
2018-Jun-16 15:30N 49°09' W 123°02'0 0.2
2018-Jun-16 14:59N 49°09' W 123°02'0 0.0
2018-Jun-16 14:30N 49°09' W 123°02'4 7.6
2018-Jun-16 13:59N 49°07' W 123°07'510.3
2018-Jun-16 13:30N 49°08' W 123°15'4 8.9
2018-Jun-16 13:01N 49°05' W 123°19'510.4
2018-Jun-16 12:31N 48°60' W 123°17'711.8
2018-Jun-16 11:57N 48°53' W 123°18'4 9.2
2018-Jun-16 11:29N 48°49' W 123°20'611.9
2018-Jun-16 11:01N 48°44' W 123°24'3 5.1
2018-Jun-16 10:30N 48°41' W 123°24'0 0.0
2018-Jun-16 10:00N 48°41' W 123°24'0 0.0
2018-Jun-16 09:30N 48°41' W 123°24'0 0.3
2018-Jun-16 09:00N 48°41' W 123°24'510.8
2018-Jun-16 08:30N 48°46' W 123°21'611.3
2018-Jun-16 07:59N 48°52' W 123°18'713.3
2018-Jun-16 07:29N 48°59' W 123°20'713.1
2018-Jun-16 06:59N 49°05' W 123°20'612.0
2018-Jun-16 06:31N 49°08' W 123°13'611.7
2018-Jun-16 06:00N 49°08' W 123°03'1 2.0
2018-Jun-16 05:30N 49°09' W 123°02'0 0.0
2018-Jun-16 05:00N 49°09' W 123°02'0 0.0
2018-Jun-16 04:29N 49°09' W 123°02'0 0.0
2018-Jun-16 03:59N 49°09' W 123°02'0 0.2
2018-Jun-16 03:30N 49°09' W 123°02'4 8.8
2018-Jun-16 03:00N 49°06' W 123°08'611.1
2018-Jun-16 02:30N 49°07' W 123°17'511.1
2018-Jun-16 02:00N 49°07' W 123°25'4 0.7
2018-Jun-15 20:11N 49°09' W 123°30'4 9.5
2018-Jun-15 19:46N 49°07' W 123°25'310.4
2018-Jun-15 19:30N 49°06' W 123°21'613.1
2018-Jun-15 19:00N 49°07' W 123°11'611.6
2018-Jun-15 18:30N 49°09' W 123°02'0 0.0
2018-Jun-15 18:00N 49°09' W 123°02'0 0.0
2018-Jun-15 17:29N 49°09' W 123°02'0 0.0
2018-Jun-15 17:00N 49°09' W 123°02'0 0.0
2018-Jun-15 16:30N 49°09' W 123°02'0 0.0
2018-Jun-15 16:00N 49°09' W 123°02'0 0.0
2018-Jun-15 15:30N 49°09' W 123°02'0 0.0
2018-Jun-15 15:00N 49°09' W 123°02'0 0.0
2018-Jun-15 14:30N 49°09' W 123°02'4 7.0
2018-Jun-15 14:00N 49°07' W 123°07'510.4
2018-Jun-15 13:30N 49°08' W 123°15'5 9.7
2018-Jun-15 13:00N 49°04' W 123°19'612.4
2018-Jun-15 12:30N 48°58' W 123°17'712.1
2018-Jun-15 11:57N 48°51' W 123°19'4 9.0
2018-Jun-15 11:30N 48°47' W 123°20'612.1
2018-Jun-15 11:00N 48°42' W 123°24'1 1.5
2018-Jun-15 10:30N 48°41' W 123°24'0 0.0
2018-Jun-15 10:00N 48°41' W 123°24'0 0.0
2018-Jun-15 09:30N 48°41' W 123°24'0 0.7
2018-Jun-15 09:00N 48°41' W 123°24'611.0
2018-Jun-15 08:30N 48°47' W 123°21'710.6
2018-Jun-15 07:50N 48°53' W 123°18'512.2
2018-Jun-15 07:28N 48°58' W 123°19'612.2
2018-Jun-15 07:00N 49°03' W 123°21'612.5
2018-Jun-15 06:30N 49°08' W 123°14'713.1
2018-Jun-15 06:00N 49°08' W 123°04'2 3.5
2018-Jun-15 05:30N 49°09' W 123°02'0 0.0
2018-Jun-15 05:00N 49°09' W 123°02'0 0.0
2018-Jun-15 04:30N 49°09' W 123°02'0 0.0
2018-Jun-15 04:00N 49°09' W 123°02'0 0.2
2018-Jun-15 03:30N 49°09' W 123°02'4 7.1
2018-Jun-15 02:59N 49°07' W 123°07'510.4
2018-Jun-15 02:29N 49°08' W 123°15'510.5
2018-Jun-15 02:00N 49°06' W 123°22'7 1.3
2018-Jun-14 20:19N 49°10' W 123°32'412.2
2018-Jun-14 19:59N 49°08' W 123°26'612.3
2018-Jun-14 19:30N 49°06' W 123°18'815.3
2018-Jun-14 19:00N 49°07' W 123°06'3 6.2
2018-Jun-14 18:30N 49°09' W 123°02'0 0.0
2018-Jun-14 18:00N 49°09' W 123°02'0 0.0
2018-Jun-14 17:30N 49°09' W 123°02'0 0.0
2018-Jun-14 17:00N 49°09' W 123°02'0 0.0
2018-Jun-14 16:30N 49°09' W 123°02'0 0.0
2018-Jun-14 15:59N 49°09' W 123°02'0 0.0
2018-Jun-14 15:30N 49°09' W 123°02'0 0.0
2018-Jun-14 15:00N 49°09' W 123°02'0 0.9
2018-Jun-14 14:30N 49°08' W 123°03'4 9.0
2018-Jun-14 14:00N 49°06' W 123°09'4 8.4
2018-Jun-14 13:29N 49°07' W 123°15'5 8.7
2018-Jun-14 12:58N 49°04' W 123°19'611.8
2018-Jun-14 12:30N 48°58' W 123°17'712.0
2018-Jun-14 11:58N 48°52' W 123°19'4 8.8
2018-Jun-14 11:30N 48°48' W 123°20'612.1
2018-Jun-14 11:00N 48°42' W 123°24'1 2.0
2018-Jun-14 10:30N 48°41' W 123°24'0 0.0
2018-Jun-14 10:00N 48°41' W 123°24'0 0.0
2018-Jun-14 09:30N 48°41' W 123°24'1 2.1
2018-Jun-14 09:00N 48°42' W 123°23'611.7
2018-Jun-14 08:30N 48°47' W 123°21'5 9.7
2018-Jun-14 08:00N 48°52' W 123°19'612.1
2018-Jun-14 07:30N 48°58' W 123°20'713.4
2018-Jun-14 07:00N 49°05' W 123°20'612.7
2018-Jun-14 06:30N 49°07' W 123°12'612.4
2018-Jun-14 06:00N 49°09' W 123°03'0 0.5
2018-Jun-14 05:30N 49°09' W 123°02'0 0.0
2018-Jun-14 05:00N 49°09' W 123°02'0 0.0
2018-Jun-14 04:28N 49°09' W 123°02'0 0.0
2018-Jun-14 04:00N 49°09' W 123°02'0 0.0
2018-Jun-14 03:30N 49°09' W 123°02'3 6.5
2018-Jun-14 03:00N 49°07' W 123°06'5 9.2
2018-Jun-14 02:30N 49°08' W 123°13'510.2
2018-Jun-14 02:00N 49°06' W 123°20'610.8
2018-Jun-14 01:26N 49°08' W 123°29'1 0.2
2018-Jun-13 20:12N 49°09' W 123°29'313.0
2018-Jun-13 19:58N 49°08' W 123°25'612.9
2018-Jun-13 19:30N 49°07' W 123°16'714.7
2018-Jun-13 19:00N 49°07' W 123°05'2 4.3
2018-Jun-13 18:30N 49°09' W 123°02'0 0.0
2018-Jun-13 18:00N 49°09' W 123°02'0 0.0
2018-Jun-13 17:30N 49°09' W 123°02'0 0.0
2018-Jun-13 17:00N 49°09' W 123°02'0 0.0
2018-Jun-13 16:30N 49°09' W 123°02'0 0.0
2018-Jun-13 16:00N 49°09' W 123°02'0 0.0
2018-Jun-13 15:30N 49°09' W 123°02'0 0.0
2018-Jun-13 15:00N 49°09' W 123°02'1 2.2
2018-Jun-13 14:30N 49°08' W 123°04'4 8.9
2018-Jun-13 14:00N 49°07' W 123°10'4 8.2
2018-Jun-13 13:30N 49°07' W 123°17'4 8.7
2018-Jun-13 13:00N 49°03' W 123°18'611.5
2018-Jun-13 12:30N 48°57' W 123°17'611.1
2018-Jun-13 11:59N 48°52' W 123°19'3 7.4
2018-Jun-13 11:30N 48°48' W 123°20'611.3
2018-Jun-13 11:00N 48°43' W 123°24'2 3.7
2018-Jun-13 10:31N 48°41' W 123°24'0 0.0
2018-Jun-13 10:01N 48°41' W 123°24'0 0.0
2018-Jun-13 09:31N 48°41' W 123°24'1 2.3
2018-Jun-13 09:01N 48°42' W 123°23'611.7
2018-Jun-13 08:30N 48°47' W 123°21'5 9.2
2018-Jun-13 08:00N 48°52' W 123°19'611.9
2018-Jun-13 07:30N 48°58' W 123°20'  
Track history (hours):
 
Tides and Currents Weather Stations Pressure Air Temp Water Temp Dewpoint Dewpoint Depression Visibility Wind Speed Wind Dir Waves Ship Positions

PrinceSS Superior

Last reported at 2018-Jun-23 07:27 UTC. Time now 2018-Jun-23 07:51 UTC.
Position N 48°60' W 123°21'.

Length 117 m; draft 4.5 m.

Type: Ship. MMSI: 316003289.

Date/timePositionNaut miles runAvg speedWind from/ knotsBaromVisibWave heightAir tempDewpointWater temp
2018-Jun-23 07:27N 48°60' W 123°21'511.4
2018-Jun-23 07:00N 49°05' W 123°20'611.6
2018-Jun-23 06:30N 49°08' W 123°13'510.2
2018-Jun-23 06:00N 49°07' W 123°05'3 5.2
2018-Jun-23 05:30N 49°09' W 123°02'0 0.0
2018-Jun-23 05:00N 49°09' W 123°02'1 2.5
2018-Jun-23 04:30N 49°08' W 123°04'4 8.5
2018-Jun-23 04:00N 49°07' W 123°10'4 6.8
2018-Jun-23 03:25N 49°07' W 123°16'4 7.8
2018-Jun-23 02:57N 49°06' W 123°21'7 1.0
2018-Jun-22 20:22N 49°09' W 123°30'511.1
2018-Jun-22 19:56N 49°07' W 123°23'410.0
2018-Jun-22 19:30N 49°07' W 123°17'510.3
2018-Jun-22 18:59N 49°07' W 123°09'5 9.6
2018-Jun-22 18:30N 49°09' W 123°02'0 0.0
2018-Jun-22 18:00N 49°09' W 123°02'0 0.0
2018-Jun-22 17:30N 49°09' W 123°02'0 0.0
2018-Jun-22 16:59N 49°09' W 123°02'0 0.0
2018-Jun-22 16:30N 49°09' W 123°02'0 0.0
2018-Jun-22 16:00N 49°09' W 123°02'0 0.0
2018-Jun-22 15:30N 49°09' W 123°02'0 0.0
2018-Jun-22 14:58N 49°09' W 123°02'1 2.7
2018-Jun-22 14:30N 49°08' W 123°04'4 8.5
2018-Jun-22 14:00N 49°07' W 123°10'4 8.2
2018-Jun-22 13:29N 49°07' W 123°16'5 9.3
2018-Jun-22 13:00N 49°03' W 123°20'712.9
2018-Jun-22 12:30N 48°57' W 123°18'5 9.2
2018-Jun-22 11:56N 48°52' W 123°21'410.2
2018-Jun-22 11:30N 48°47' W 123°20'611.4
2018-Jun-22 11:01N 48°42' W 123°24'1 1.8
2018-Jun-22 10:30N 48°41' W 123°24'0 0.0
2018-Jun-22 10:00N 48°41' W 123°24'0 0.0
2018-Jun-22 09:30N 48°41' W 123°24'2 4.6
2018-Jun-22 09:01N 48°42' W 123°21'712.8
2018-Jun-22 08:29N 48°49' W 123°21'5 9.9
2018-Jun-22 07:58N 48°54' W 123°18'511.8
2018-Jun-22 07:30N 48°59' W 123°21'511.0
2018-Jun-22 07:00N 49°05' W 123°21'612.2
2018-Jun-22 06:30N 49°08' W 123°13'611.7
2018-Jun-22 06:00N 49°08' W 123°04'1 2.9
2018-Jun-22 05:30N 49°09' W 123°02'0 0.0
2018-Jun-22 05:00N 49°09' W 123°02'0 0.0
2018-Jun-22 04:30N 49°09' W 123°02'0 0.0
2018-Jun-22 04:00N 49°09' W 123°02'1 1.1
2018-Jun-22 03:30N 49°08' W 123°03'5 9.8
2018-Jun-22 02:58N 49°07' W 123°10'4 9.2
2018-Jun-22 02:29N 49°07' W 123°17'5 9.4
2018-Jun-22 02:00N 49°07' W 123°24'3 0.6
2018-Jun-21 20:14N 49°09' W 123°28'312.6
2018-Jun-21 20:00N 49°08' W 123°24'611.6
2018-Jun-21 19:27N 49°08' W 123°15'612.3
2018-Jun-21 19:00N 49°07' W 123°06'3 6.5
2018-Jun-21 18:30N 49°09' W 123°02'0 0.0
2018-Jun-21 18:00N 49°09' W 123°02'0 0.0
2018-Jun-21 17:25N 49°09' W 123°02'0 0.0
2018-Jun-21 17:00N 49°09' W 123°02'0 0.0
2018-Jun-21 16:30N 49°09' W 123°02'0 0.0
2018-Jun-21 16:00N 49°09' W 123°02'0 0.0
2018-Jun-21 15:30N 49°09' W 123°02'0 0.0
2018-Jun-21 15:00N 49°09' W 123°02'0 0.8
2018-Jun-21 14:30N 49°08' W 123°03'4 8.8
2018-Jun-21 14:00N 49°06' W 123°09'4 8.4
2018-Jun-21 13:30N 49°08' W 123°15'4 8.6
2018-Jun-21 12:59N 49°04' W 123°19'612.3
2018-Jun-21 12:31N 48°59' W 123°16'713.1
2018-Jun-21 12:00N 48°52' W 123°18'4 7.7
2018-Jun-21 11:30N 48°49' W 123°20'611.9
2018-Jun-21 11:01N 48°43' W 123°24'2 3.8
2018-Jun-21 10:30N 48°41' W 123°24'0 0.0
2018-Jun-21 10:01N 48°41' W 123°24'0 0.0
2018-Jun-21 09:30N 48°41' W 123°24'1 2.4
2018-Jun-21 09:01N 48°42' W 123°23'812.8
2018-Jun-21 08:23N 48°50' W 123°21'410.5
2018-Jun-21 07:57N 48°54' W 123°18'613.1
2018-Jun-21 07:29N 48°60' W 123°19'612.4
2018-Jun-21 07:00N 49°06' W 123°19'611.0
2018-Jun-21 06:28N 49°07' W 123°10'611.5
2018-Jun-21 06:00N 49°09' W 123°02'0 0.3
2018-Jun-21 05:30N 49°09' W 123°02'0 0.0
2018-Jun-21 04:59N 49°09' W 123°02'0 0.0
2018-Jun-21 04:30N 49°09' W 123°02'0 0.0
2018-Jun-21 04:00N 49°09' W 123°02'0 0.7
2018-Jun-21 03:30N 49°09' W 123°03'5 9.6
2018-Jun-21 03:00N 49°07' W 123°09'5 9.0
2018-Jun-21 02:24N 49°06' W 123°18'4 9.1
2018-Jun-21 02:00N 49°06' W 123°23'510.4
2018-Jun-21 01:30N 49°08' W 123°30'2 0.3
2018-Jun-20 20:06N 49°08' W 123°27'112.5
2018-Jun-20 20:00N 49°08' W 123°26'611.6
2018-Jun-20 19:28N 49°07' W 123°16'512.0
2018-Jun-20 19:00N 49°07' W 123°08'4 8.4
2018-Jun-20 18:30N 49°09' W 123°02'0 0.0
2018-Jun-20 17:58N 49°09' W 123°02'0 0.0
2018-Jun-20 17:30N 49°09' W 123°02'0 0.0
2018-Jun-20 17:00N 49°09' W 123°02'0 0.0
2018-Jun-20 16:30N 49°09' W 123°02'0 0.0
2018-Jun-20 16:00N 49°09' W 123°02'0 0.0
2018-Jun-20 15:30N 49°09' W 123°02'0 0.0
2018-Jun-20 14:59N 49°09' W 123°02'0 0.1
2018-Jun-20 14:30N 49°09' W 123°02'5 9.1
2018-Jun-20 14:00N 49°06' W 123°08'5 9.5
2018-Jun-20 13:30N 49°07' W 123°16'4 8.9
2018-Jun-20 13:00N 49°04' W 123°19'612.1
2018-Jun-20 12:30N 48°58' W 123°17'612.2
2018-Jun-20 11:59N 48°51' W 123°19'4 7.9
2018-Jun-20 11:31N 48°48' W 123°20'611.7
2018-Jun-20 11:00N 48°43' W 123°24'1 2.6
2018-Jun-20 10:30N 48°41' W 123°24'0 0.0
2018-Jun-20 10:00N 48°41' W 123°24'0 0.0
2018-Jun-20 09:30N 48°41' W 123°24'3 6.2
2018-Jun-20 09:00N 48°43' W 123°21'714.1
2018-Jun-20 08:29N 48°51' W 123°21'511.1
2018-Jun-20 08:00N 48°56' W 123°19'713.1
2018-Jun-20 07:30N 49°02' W 123°22'611.2
2018-Jun-20 06:57N 49°07' W 123°17'4 9.0
2018-Jun-20 06:30N 49°07' W 123°10'510.6
2018-Jun-20 06:00N 49°09' W 123°03'0 0.6
2018-Jun-20 05:30N 49°09' W 123°02'0 0.0
2018-Jun-20 05:00N 49°09' W 123°02'0 0.0
2018-Jun-20 04:30N 49°09' W 123°02'0 0.0
2018-Jun-20 03:59N 49°09' W 123°02'1 1.6
2018-Jun-20 03:29N 49°08' W 123°03'5 9.6
2018-Jun-20 02:58N 49°07' W 123°10'5 9.9
2018-Jun-20 02:30N 49°06' W 123°18'510.0
2018-Jun-20 01:59N 49°07' W 123°25'3 0.5
2018-Jun-19 20:11N 49°09' W 123°29'310.5
2018-Jun-19 19:55N 49°08' W 123°25'510.2
2018-Jun-19 19:25N 49°07' W 123°17'511.7
2018-Jun-19 18:59N 49°07' W 123°10'510.6
2018-Jun-19 18:30N 49°09' W 123°02'0 0.2
2018-Jun-19 18:00N 49°09' W 123°02'0 0.0
2018-Jun-19 17:30N 49°09' W 123°02'0 0.0
2018-Jun-19 17:01N 49°09' W 123°02'0 0.0
2018-Jun-19 16:31N 49°09' W 123°02'0 0.0
2018-Jun-19 15:58N 49°09' W 123°02'0 0.0
2018-Jun-19 15:30N 49°09' W 123°02'0 0.0
2018-Jun-19 15:00N 49°09' W 123°02'0 0.2
2018-Jun-19 14:30N 49°09' W 123°02'4 9.0
2018-Jun-19 14:00N 49°06' W 123°08'5 9.4
2018-Jun-19 13:30N 49°07' W 123°15'5 9.1
2018-Jun-19 13:00N 49°04' W 123°19'612.7
2018-Jun-19 12:30N 48°58' W 123°17'612.7
2018-Jun-19 12:00N 48°51' W 123°19'4 8.7
2018-Jun-19 11:30N 48°47' W 123°20'510.9
2018-Jun-19 11:00N 48°42' W 123°24'1 2.0
2018-Jun-19 10:30N 48°41' W 123°24'0 0.0
2018-Jun-19 10:00N 48°41' W 123°24'0 0.0
2018-Jun-19 09:29N 48°41' W 123°24'3 6.7
2018-Jun-19 09:00N 48°44' W 123°21'715.0
2018-Jun-19 08:30N 48°51' W 123°21'611.1
2018-Jun-19 07:59N 48°57' W 123°20'612.7
2018-Jun-19 07:29N 49°03' W 123°23'612.0
2018-Jun-19 07:00N 49°07' W 123°17'4 8.9
2018-Jun-19 06:30N 49°07' W 123°10'510.2
2018-Jun-19 06:00N 49°09' W 123°03'1 0.4
2018-Jun-19 03:22N 49°08' W 123°04'410.0
2018-Jun-19 02:57N 49°07' W 123°10'4 9.3
2018-Jun-19 02:28N 49°07' W 123°17'4 8.3
2018-Jun-19 01:56N 49°06' W 123°23'1 0.2
2018-Jun-18 20:06N 49°07' W 123°25'311.1
2018-Jun-18 19:51N 49°07' W 123°21'412.5
2018-Jun-18 19:30N 49°08' W 123°15'712.7
2018-Jun-18 18:57N 49°08' W 123°04'1 2.4
2018-Jun-18 18:28N 49°09' W 123°02'0 0.0
2018-Jun-18 18:00N 49°09' W 123°02'0 0.0
2018-Jun-18 17:30N 49°09' W 123°02'0 0.2
2018-Jun-18 17:00N 49°09' W 123°02'0 0.0
2018-Jun-18 16:28N 49°09' W 123°02'0 0.0
2018-Jun-18 15:54N 49°09' W 123°02'0 0.0
2018-Jun-18 15:29N 49°09' W 123°02'0 0.0
2018-Jun-18 15:00N 49°09' W 123°02'0 0.0
2018-Jun-18 14:30N 49°09' W 123°02'0 0.0
2018-Jun-18 14:00N 49°09' W 123°02'0 0.0
2018-Jun-18 13:30N 49°09' W 123°02'0 0.0
2018-Jun-18 13:00N 49°09' W 123°02'0 0.0
2018-Jun-18 12:30N 49°09' W 123°02'0 0.0
2018-Jun-18 12:00N 49°09' W 123°02'0 0.0
2018-Jun-18 11:30N 49°09' W 123°02'0 0.0
2018-Jun-18 11:00N 49°09' W 123°02'0 0.0
2018-Jun-18 10:30N 49°09' W 123°02'0 0.0
2018-Jun-18 09:59N 49°09' W 123°02'0 0.0
2018-Jun-18 09:30N 49°09' W 123°02'0 0.0
2018-Jun-18 09:00N 49°09' W 123°02'0 0.0
2018-Jun-18 08:30N 49°09' W 123°02'0 0.0
2018-Jun-18 08:00N 49°09' W 123°02'0 0.0
2018-Jun-18 07:30N 49°09' W 123°02'0 0.0
2018-Jun-18 06:53N 49°09' W 123°02'0 0.0
2018-Jun-18 06:30N 49°09' W 123°02'0 0.0
2018-Jun-18 06:00N 49°09' W 123°02'0 0.0
2018-Jun-18 05:28N 49°09' W 123°02'0 0.0
2018-Jun-18 05:00N 49°09' W 123°02'0 0.0
2018-Jun-18 04:30N 49°09' W 123°02'0 0.0
2018-Jun-18 04:00N 49°09' W 123°02'0 0.0
2018-Jun-18 03:30N 49°09' W 123°02'0 0.0
2018-Jun-18 03:00N 49°09' W 123°02'0 0.0
2018-Jun-18 02:30N 49°09' W 123°02'0 0.0
2018-Jun-18 02:00N 49°09' W 123°02'0 0.0
2018-Jun-18 01:30N 49°09' W 123°02'0 0.0
2018-Jun-18 01:00N 49°09' W 123°02'0 0.0
2018-Jun-18 00:30N 49°09' W 123°02'0 0.0
2018-Jun-18 00:00N 49°09' W 123°02'0 0.0
2018-Jun-17 23:30N 49°09' W 123°02'0 0.0
2018-Jun-17 22:58N 49°09' W 123°02'0 0.0
2018-Jun-17 22:30N 49°09' W 123°02'0 0.0
2018-Jun-17 22:00N 49°09' W 123°02'0 0.0
2018-Jun-17 21:30N 49°09' W 123°02'0 0.0
2018-Jun-17 21:00N 49°09' W 123°02'0 0.0
2018-Jun-17 20:30N 49°09' W 123°02'0 0.0
2018-Jun-17 20:00N 49°09' W 123°02'0 0.0
2018-Jun-17 19:29N 49°09' W 123°02'0 0.0
2018-Jun-17 19:00N 49°09' W 123°02'0 0.0
2018-Jun-17 18:30N 49°09' W 123°02'0 0.0
2018-Jun-17 18:00N 49°09' W 123°02'0 0.0
2018-Jun-17 17:30N 49°09' W 123°02'0 0.0
2018-Jun-17 17:00N 49°09' W 123°02'0 0.0
2018-Jun-17 16:30N 49°09' W 123°02'0 0.0
2018-Jun-17 16:00N 49°09' W 123°02'0 0.0
2018-Jun-17 15:30N 49°09' W 123°02'0 0.0
2018-Jun-17 15:00N 49°09' W 123°02'0 0.0
2018-Jun-17 14:30N 49°09' W 123°02'0 0.0
2018-Jun-17 14:00N 49°09' W 123°02'0 0.0
2018-Jun-17 13:30N 49°09' W 123°02'0 0.0
2018-Jun-17 13:00N 49°09' W 123°02'0 0.0
2018-Jun-17 12:30N 49°09' W 123°02'0 0.0
2018-Jun-17 12:00N 49°09' W 123°02'0 0.0
2018-Jun-17 11:30N 49°09' W 123°02'0 0.0
2018-Jun-17 11:00N 49°09' W 123°02'0 0.0
2018-Jun-17 10:30N 49°09' W 123°02'0 0.0
2018-Jun-17 10:00N 49°09' W 123°02'0 0.0
2018-Jun-17 09:30N 49°09' W 123°02'0 0.0
2018-Jun-17 09:00N 49°09' W 123°02'0 0.0
2018-Jun-17 08:30N 49°09' W 123°02'0 0.0
2018-Jun-17 08:00N 49°09' W 123°02'0 0.0
2018-Jun-17 07:30N 49°09' W 123°02'0 0.0
2018-Jun-17 07:00N 49°09' W 123°02'0 0.0
2018-Jun-17 06:30N 49°09' W 123°02'0 0.0
2018-Jun-17 06:00N 49°09' W 123°02'0 0.0
2018-Jun-17 05:30N 49°09' W 123°02'0 0.0
2018-Jun-17 05:00N 49°09' W 123°02'0 0.0
2018-Jun-17 04:30N 49°09' W 123°02'0 0.0
2018-Jun-17 04:00N 49°09' W 123°02'0 0.0
2018-Jun-17 03:30N 49°09' W 123°02'0 0.0
2018-Jun-17 03:00N 49°09' W 123°02'0 0.0
2018-Jun-17 02:30N 49°09' W 123°02'0 0.0
2018-Jun-17 02:00N 49°09' W 123°02'0 0.0
2018-Jun-17 01:30N 49°09' W 123°02'0 0.0
2018-Jun-17 01:00N 49°09' W 123°02'0 0.0
2018-Jun-17 00:30N 49°09' W 123°02'0 0.0
2018-Jun-17 00:00N 49°09' W 123°02'0 0.0
2018-Jun-16 23:30N 49°09' W 123°02'0 0.0
2018-Jun-16 23:00N 49°09' W 123°02'0 0.0
2018-Jun-16 22:30N 49°09' W 123°02'0 0.0
2018-Jun-16 22:00N 49°09' W 123°02'0 0.0
2018-Jun-16 21:30N 49°09' W 123°02'0 0.0
2018-Jun-16 21:00N 49°09' W 123°02'0 0.0
2018-Jun-16 20:30N 49°09' W 123°02'0 0.0
2018-Jun-16 20:00N 49°09' W 123°02'0 0.0
2018-Jun-16 19:30N 49°09' W 123°02'0 0.0
2018-Jun-16 19:00N 49°09' W 123°02'0 0.0
2018-Jun-16 18:30N 49°09' W 123°02'0 0.0
2018-Jun-16 18:00N 49°09' W 123°02'0 0.0
2018-Jun-16 17:30N 49°09' W 123°02'0 0.0
2018-Jun-16 17:00N 49°09' W 123°02'0 0.0
2018-Jun-16 16:30N 49°09' W 123°02'0 0.0
2018-Jun-16 16:00N 49°09' W 123°02'0 0.0
2018-Jun-16 15:30N 49°09' W 123°02'0 0.2
2018-Jun-16 14:59N 49°09' W 123°02'0 0.0
2018-Jun-16 14:30N 49°09' W 123°02'4 7.6
2018-Jun-16 13:59N 49°07' W 123°07'510.3
2018-Jun-16 13:30N 49°08' W 123°15'4 8.9
2018-Jun-16 13:01N 49°05' W 123°19'510.4
2018-Jun-16 12:31N 48°60' W 123°17'711.8
2018-Jun-16 11:57N 48°53' W 123°18'4 9.2
2018-Jun-16 11:29N 48°49' W 123°20'611.9
2018-Jun-16 11:01N 48°44' W 123°24'3 5.1
2018-Jun-16 10:30N 48°41' W 123°24'0 0.0
2018-Jun-16 10:00N 48°41' W 123°24'0 0.0
2018-Jun-16 09:30N 48°41' W 123°24'0 0.3
2018-Jun-16 09:00N 48°41' W 123°24'510.8
2018-Jun-16 08:30N 48°46' W 123°21'611.3
2018-Jun-16 07:59N 48°52' W 123°18'713.3
2018-Jun-16 07:29N 48°59' W 123°20'713.1
2018-Jun-16 06:59N 49°05' W 123°20'612.0
2018-Jun-16 06:31N 49°08' W 123°13'611.7
2018-Jun-16 06:00N 49°08' W 123°03'1 2.0
2018-Jun-16 05:30N 49°09' W 123°02'0 0.0
2018-Jun-16 05:00N 49°09' W 123°02'0 0.0
2018-Jun-16 04:29N 49°09' W 123°02'0 0.0
2018-Jun-16 03:59N 49°09' W 123°02'0 0.2
2018-Jun-16 03:30N 49°09' W 123°02'4 8.8
2018-Jun-16 03:00N 49°06' W 123°08'611.1
2018-Jun-16 02:30N 49°07' W 123°17'511.1
2018-Jun-16 02:00N 49°07' W 123°25'4 0.7
2018-Jun-15 20:11N 49°09' W 123°30'4 9.5
2018-Jun-15 19:46N 49°07' W 123°25'310.4
2018-Jun-15 19:30N 49°06' W 123°21'613.1
2018-Jun-15 19:00N 49°07' W 123°11'611.6
2018-Jun-15 18:30N 49°09' W 123°02'0 0.0
2018-Jun-15 18:00N 49°09' W 123°02'0 0.0
2018-Jun-15 17:29N 49°09' W 123°02'0 0.0
2018-Jun-15 17:00N 49°09' W 123°02'0 0.0
2018-Jun-15 16:30N 49°09' W 123°02'0 0.0
2018-Jun-15 16:00N 49°09' W 123°02'0 0.0
2018-Jun-15 15:30N 49°09' W 123°02'0 0.0
2018-Jun-15 15:00N 49°09' W 123°02'0 0.0
2018-Jun-15 14:30N 49°09' W 123°02'4 7.0
2018-Jun-15 14:00N 49°07' W 123°07'510.4
2018-Jun-15 13:30N 49°08' W 123°15'5 9.7
2018-Jun-15 13:00N 49°04' W 123°19'612.4
2018-Jun-15 12:30N 48°58' W 123°17'712.1
2018-Jun-15 11:57N 48°51' W 123°19'4 9.0
2018-Jun-15 11:30N 48°47' W 123°20'612.1
2018-Jun-15 11:00N 48°42' W 123°24'1 1.5
2018-Jun-15 10:30N 48°41' W 123°24'0 0.0
2018-Jun-15 10:00N 48°41' W 123°24'0 0.0
2018-Jun-15 09:30N 48°41' W 123°24'0 0.7
2018-Jun-15 09:00N 48°41' W 123°24'611.0
2018-Jun-15 08:30N 48°47' W 123°21'710.6
2018-Jun-15 07:50N 48°53' W 123°18'512.2
2018-Jun-15 07:28N 48°58' W 123°19'612.2
2018-Jun-15 07:00N 49°03' W 123°21'612.5
2018-Jun-15 06:30N 49°08' W 123°14'713.1
2018-Jun-15 06:00N 49°08' W 123°04'2 3.5
2018-Jun-15 05:30N 49°09' W 123°02'0 0.0
2018-Jun-15 05:00N 49°09' W 123°02'0 0.0
2018-Jun-15 04:30N 49°09' W 123°02'0 0.0
2018-Jun-15 04:00N 49°09' W 123°02'0 0.2
2018-Jun-15 03:30N 49°09' W 123°02'4 7.1
2018-Jun-15 02:59N 49°07' W 123°07'510.4
2018-Jun-15 02:29N 49°08' W 123°15'510.5
2018-Jun-15 02:00N 49°06' W 123°22'7 1.3
2018-Jun-14 20:19N 49°10' W 123°32'412.2
2018-Jun-14 19:59N 49°08' W 123°26'612.3
2018-Jun-14 19:30N 49°06' W 123°18'815.3
2018-Jun-14 19:00N 49°07' W 123°06'3 6.2
2018-Jun-14 18:30N 49°09' W 123°02'0 0.0
2018-Jun-14 18:00N 49°09' W 123°02'0 0.0
2018-Jun-14 17:30N 49°09' W 123°02'0 0.0
2018-Jun-14 17:00N 49°09' W 123°02'0 0.0
2018-Jun-14 16:30N 49°09' W 123°02'0 0.0
2018-Jun-14 15:59N 49°09' W 123°02'0 0.0
2018-Jun-14 15:30N 49°09' W 123°02'0 0.0
2018-Jun-14 15:00N 49°09' W 123°02'0 0.9
2018-Jun-14 14:30N 49°08' W 123°03'4 9.0
2018-Jun-14 14:00N 49°06' W 123°09'4 8.4
2018-Jun-14 13:29N 49°07' W 123°15'5 8.7
2018-Jun-14 12:58N 49°04' W 123°19'611.8
2018-Jun-14 12:30N 48°58' W 123°17'712.0
2018-Jun-14 11:58N 48°52' W 123°19'4 8.8
2018-Jun-14 11:30N 48°48' W 123°20'612.1
2018-Jun-14 11:00N 48°42' W 123°24'1 2.0
2018-Jun-14 10:30N 48°41' W 123°24'0 0.0
2018-Jun-14 10:00N 48°41' W 123°24'0 0.0
2018-Jun-14 09:30N 48°41' W 123°24'1 2.1
2018-Jun-14 09:00N 48°42' W 123°23'611.7
2018-Jun-14 08:30N 48°47' W 123°21'5 9.7
2018-Jun-14 08:00N 48°52' W 123°19'612.1
2018-Jun-14 07:30N 48°58' W 123°20'713.4
2018-Jun-14 07:00N 49°05' W 123°20'612.7
2018-Jun-14 06:30N 49°07' W 123°12'612.4
2018-Jun-14 06:00N 49°09' W 123°03'0 0.5
2018-Jun-14 05:30N 49°09' W 123°02'0 0.0
2018-Jun-14 05:00N 49°09' W 123°02'0 0.0
2018-Jun-14 04:28N 49°09' W 123°02'0 0.0
2018-Jun-14 04:00N 49°09' W 123°02'0 0.0
2018-Jun-14 03:30N 49°09' W 123°02'3 6.5
2018-Jun-14 03:00N 49°07' W 123°06'5 9.2
2018-Jun-14 02:30N 49°08' W 123°13'510.2
2018-Jun-14 02:00N 49°06' W 123°20'610.8
2018-Jun-14 01:26N 49°08' W 123°29'1 0.2
2018-Jun-13 20:12N 49°09' W 123°29'313.0
2018-Jun-13 19:58N 49°08' W 123°25'612.9
2018-Jun-13 19:30N 49°07' W 123°16'714.7
2018-Jun-13 19:00N 49°07' W 123°05'2 4.3
2018-Jun-13 18:30N 49°09' W 123°02'0 0.0
2018-Jun-13 18:00N 49°09' W 123°02'0 0.0
2018-Jun-13 17:30N 49°09' W 123°02'0 0.0
2018-Jun-13 17:00N 49°09' W 123°02'0 0.0
2018-Jun-13 16:30N 49°09' W 123°02'0 0.0
2018-Jun-13 16:00N 49°09' W 123°02'0 0.0
2018-Jun-13 15:30N 49°09' W 123°02'0 0.0
2018-Jun-13 15:00N 49°09' W 123°02'1 2.2
2018-Jun-13 14:30N 49°08' W 123°04'4 8.9
2018-Jun-13 14:00N 49°07' W 123°10'4 8.2
2018-Jun-13 13:30N 49°07' W 123°17'4 8.7
2018-Jun-13 13:00N 49°03' W 123°18'611.5
2018-Jun-13 12:30N 48°57' W 123°17'611.1
2018-Jun-13 11:59N 48°52' W 123°19'3 7.4
2018-Jun-13 11:30N 48°48' W 123°20'611.3
2018-Jun-13 11:00N 48°43' W 123°24'2 3.7
2018-Jun-13 10:31N 48°41' W 123°24'0 0.0
2018-Jun-13 10:01N 48°41' W 123°24'0 0.0
2018-Jun-13 09:31N 48°41' W 123°24'1 2.3
2018-Jun-13 09:01N 48°42' W 123°23'611.7
2018-Jun-13 08:30N 48°47' W 123°21'5 9.2
2018-Jun-13 08:00N 48°52' W 123°19'611.9
2018-Jun-13 07:30N 48°58' W 123°20'  

Dump ship's entire track history